Terminal Aerodrome Forecast
Issued by NWS

Current Version | Previous Version | Graphics & Text | Print | Product List | Glossary On
Versions: 1 2 3 4 5 6 7 8 9 10 11 12 13 14 15 16 17 18 19 20
000
FTUS41 KILN 241100 AAA
TAFLCK
TAF AMD
KLCK 241151Z 2412/2512 04007KT 3SM BR BKN004
     FM241300 08006KT P6SM SCT040
     FM250000 06004KT P6SM BKN200
     FM250600 00000KT 4SM BR SCT200=

USA.gov is the U.S. government's official web portal to all federal, state and local government web resources and services.